KMM309 EDDM-LMML
Flight info
| Callsign | KMM309 |
|---|---|
| Flight time | N/A |
| Altitude | 37000 |
| Route | TURBU7S TURBU Y107 TOBSO DCT BAKOR DCT SOVUB DCT DIPVO DCT UNIXO DCT MARON DCT EKOLA L12 GZO |
| Aircraft | A320/M-SDE3FGHIRWY/LB1 |
Departure
| Time | 2026-05-07 16:13 |
|---|---|
| Airport | Munich Airport (EDDM) |
Arrival
| Time | N/A |
|---|---|
| Airport | Malta International Airport (LMML) |
| Time | Latitude | Longitude | Altitude | Speed | Heading |
|---|---|---|---|---|---|
| 2026-05-07 15:45 | 48.35208 | 11.79779 | 1485 ft | 0 kts | 83° |
| 2026-05-07 16:01 | 48.35206 | 11.79751 | 1475 ft | 4 kts | 83° |
| 2026-05-07 16:02 | 48.35203 | 11.79711 | 1476 ft | 4 kts | 83° |
| 2026-05-07 16:02 | 48.35201 | 11.79679 | 1475 ft | 4 kts | 97° |
| 2026-05-07 16:02 | 48.35210 | 11.79644 | 1475 ft | 4 kts | 138° |
| 2026-05-07 16:02 | 48.35231 | 11.79629 | 1476 ft | 4 kts | 173° |
| 2026-05-07 16:03 | 48.35246 | 11.79626 | 1476 ft | 0 kts | 173° |
| 2026-05-07 16:06 | 48.35245 | 11.79626 | 1476 ft | 0 kts | 173° |
| 2026-05-07 16:06 | 48.35230 | 11.79629 | 1476 ft | 4 kts | 174° |
| 2026-05-07 16:06 | 48.35198 | 11.79634 | 1471 ft | 6 kts | 173° |
| 2026-05-07 16:06 | 48.35159 | 11.79641 | 1480 ft | 5 kts | 173° |
| 2026-05-07 16:07 | 48.35128 | 11.79646 | 1482 ft | 4 kts | 173° |
| 2026-05-07 16:07 | 48.35091 | 11.79652 | 1473 ft | 6 kts | 173° |
| 2026-05-07 16:07 | 48.35041 | 11.79661 | 1475 ft | 7 kts | 173° |
| 2026-05-07 16:07 | 48.34994 | 11.79670 | 1485 ft | 8 kts | 174° |
| 2026-05-07 16:08 | 48.34940 | 11.79678 | 1485 ft | 7 kts | 173° |
| 2026-05-07 16:08 | 48.34896 | 11.79686 | 1475 ft | 6 kts | 173° |
| 2026-05-07 16:08 | 48.34863 | 11.79692 | 1477 ft | 0 kts | 173° |
| 2026-05-07 16:08 | 48.34859 | 11.79693 | 1479 ft | 2 kts | 173° |
| 2026-05-07 16:09 | 48.34850 | 11.79694 | 1481 ft | 2 kts | 173° |
| 2026-05-07 16:09 | 48.34789 | 11.79705 | 1485 ft | 11 kts | 174° |
| 2026-05-07 16:09 | 48.34728 | 11.79712 | 1485 ft | 7 kts | 184° |
| 2026-05-07 16:09 | 48.34690 | 11.79678 | 1474 ft | 6 kts | 229° |
| 2026-05-07 16:10 | 48.34669 | 11.79636 | 1476 ft | 4 kts | 238° |
| 2026-05-07 16:10 | 48.34654 | 11.79602 | 1481 ft | 3 kts | 235° |
| 2026-05-07 16:10 | 48.34634 | 11.79558 | 1478 ft | 7 kts | 234° |
| 2026-05-07 16:10 | 48.34608 | 11.79506 | 1480 ft | 6 kts | 233° |
| 2026-05-07 16:11 | 48.34587 | 11.79465 | 1476 ft | 4 kts | 233° |
| 2026-05-07 16:11 | 48.34554 | 11.79397 | 1483 ft | 12 kts | 233° |
| 2026-05-07 16:11 | 48.34504 | 11.79299 | 1477 ft | 11 kts | 232° |
| 2026-05-07 16:11 | 48.34461 | 11.79211 | 1481 ft | 10 kts | 233° |
| 2026-05-07 16:12 | 48.34426 | 11.79139 | 1478 ft | 0 kts | 235° |
| 2026-05-07 16:12 | 48.34426 | 11.79138 | 1485 ft | 2 kts | 235° |
| 2026-05-07 16:12 | 48.34387 | 11.79032 | 1473 ft | 19 kts | 245° |
| 2026-05-07 16:13 | 48.34350 | 11.78764 | 1485 ft | 43 kts | 263° |
| 2026-05-07 16:13 | 48.34289 | 11.77939 | 1481 ft | 112 kts | 264° |
| 2026-05-07 16:13 | 48.34176 | 11.76491 | 1501 ft | 163 kts | 265° |
| 2026-05-07 16:13 | 48.34019 | 11.74778 | 2148 ft | 166 kts | 264° |
| 2026-05-07 16:14 | 48.33876 | 11.73068 | 2938 ft | 167 kts | 265° |
| 2026-05-07 16:14 | 48.33514 | 11.71398 | 3591 ft | 172 kts | 237° |
| 2026-05-07 16:14 | 48.32543 | 11.70351 | 4197 ft | 182 kts | 192° |
| 2026-05-07 16:14 | 48.31263 | 11.70351 | 4809 ft | 188 kts | 180° |
| 2026-05-07 16:15 | 48.29888 | 11.70466 | 5126 ft | 208 kts | 180° |
| 2026-05-07 16:15 | 48.28389 | 11.70616 | 5522 ft | 225 kts | 172° |
| 2026-05-07 16:15 | 48.26856 | 11.71569 | 5803 ft | 255 kts | 149° |
| 2026-05-07 16:15 | 48.25348 | 11.73212 | 6268 ft | 278 kts | 143° |
| 2026-05-07 16:16 | 48.23822 | 11.75076 | 6823 ft | 286 kts | 142° |
| 2026-05-07 16:16 | 48.22281 | 11.76971 | 6983 ft | 286 kts | 143° |
| 2026-05-07 16:16 | 48.20706 | 11.78791 | 7023 ft | 285 kts | 146° |
| 2026-05-07 16:16 | 48.19101 | 11.80535 | 7033 ft | 285 kts | 147° |
| 2026-05-07 16:17 | 48.17384 | 11.81974 | 7029 ft | 282 kts | 160° |
| 2026-05-07 16:17 | 48.16159 | 11.82617 | 7029 ft | 281 kts | 165° |
| 2026-05-07 16:17 | 48.14293 | 11.83537 | 7029 ft | 282 kts | 165° |
| 2026-05-07 16:17 | 48.12428 | 11.84455 | 7028 ft | 282 kts | 164° |
| 2026-05-07 16:18 | 48.10566 | 11.85376 | 7027 ft | 281 kts | 164° |
| 2026-05-07 16:18 | 48.08712 | 11.86295 | 7029 ft | 281 kts | 164° |
| 2026-05-07 16:18 | 48.06854 | 11.87218 | 7029 ft | 281 kts | 164° |
| 2026-05-07 16:18 | 48.04998 | 11.88140 | 7026 ft | 280 kts | 164° |
| 2026-05-07 16:19 | 48.03143 | 11.89060 | 7022 ft | 282 kts | 164° |
| 2026-05-07 16:19 | 48.01277 | 11.89986 | 7031 ft | 283 kts | 164° |
| 2026-05-07 16:19 | 47.99406 | 11.90912 | 7031 ft | 283 kts | 164° |
| 2026-05-07 16:19 | 47.97557 | 11.91826 | 7025 ft | 282 kts | 164° |
| 2026-05-07 16:20 | 47.95695 | 11.92746 | 7026 ft | 282 kts | 163° |
| 2026-05-07 16:20 | 47.93815 | 11.93679 | 7582 ft | 285 kts | 164° |
| 2026-05-07 16:20 | 47.91902 | 11.94459 | 8543 ft | 286 kts | 172° |
| 2026-05-07 16:20 | 47.89927 | 11.94818 | 9468 ft | 287 kts | 180° |
| 2026-05-07 16:21 | 47.87926 | 11.94810 | 10269 ft | 293 kts | 184° |
| 2026-05-07 16:21 | 47.85804 | 11.94755 | 10570 ft | 317 kts | 184° |
| 2026-05-07 16:21 | 47.83521 | 11.94699 | 10853 ft | 338 kts | 184° |
| 2026-05-07 16:21 | 47.81128 | 11.94649 | 11447 ft | 347 kts | 183° |
| 2026-05-07 16:22 | 47.78695 | 11.94605 | 12165 ft | 352 kts | 183° |
| 2026-05-07 16:22 | 47.76230 | 11.94566 | 12927 ft | 356 kts | 183° |
| 2026-05-07 16:22 | 47.73741 | 11.94529 | 13700 ft | 359 kts | 183° |
| 2026-05-07 16:22 | 47.71233 | 11.94488 | 14389 ft | 363 kts | 183° |
| 2026-05-07 16:23 | 47.68694 | 11.94447 | 15035 ft | 366 kts | 183° |
| 2026-05-07 16:23 | 47.66137 | 11.94404 | 15674 ft | 370 kts | 183° |
| 2026-05-07 16:23 | 47.63548 | 11.94362 | 16308 ft | 374 kts | 183° |
| 2026-05-07 16:23 | 47.60971 | 11.94314 | 16934 ft | 377 kts | 183° |
| 2026-05-07 16:24 | 47.58290 | 11.94261 | 17551 ft | 382 kts | 183° |
| 2026-05-07 16:24 | 47.55659 | 11.94211 | 18175 ft | 386 kts | 183° |
| 2026-05-07 16:24 | 47.52951 | 11.94165 | 18741 ft | 389 kts | 183° |
| 2026-05-07 16:24 | 47.50237 | 11.94116 | 19271 ft | 393 kts | 183° |
| 2026-05-07 16:25 | 47.47487 | 11.94069 | 19774 ft | 396 kts | 183° |
| 2026-05-07 16:25 | 47.44706 | 11.94024 | 20298 ft | 400 kts | 183° |
| 2026-05-07 16:25 | 47.41923 | 11.93778 | 20802 ft | 401 kts | 190° |
| 2026-05-07 16:25 | 47.39146 | 11.93217 | 21298 ft | 405 kts | 190° |
| 2026-05-07 16:26 | 47.36341 | 11.92651 | 21786 ft | 408 kts | 190° |
| 2026-05-07 16:26 | 47.33554 | 11.92092 | 22269 ft | 411 kts | 190° |
| 2026-05-07 16:26 | 47.30708 | 11.91527 | 22777 ft | 414 kts | 190° |
| 2026-05-07 16:26 | 47.27837 | 11.90959 | 23242 ft | 418 kts | 189° |
| 2026-05-07 16:27 | 47.24942 | 11.90386 | 23698 ft | 421 kts | 189° |
| 2026-05-07 16:27 | 47.22029 | 11.89806 | 24132 ft | 423 kts | 190° |
| 2026-05-07 16:27 | 47.19105 | 11.89218 | 24551 ft | 425 kts | 190° |
| 2026-05-07 16:27 | 47.16168 | 11.88633 | 24974 ft | 426 kts | 189° |
| 2026-05-07 16:28 | 47.13223 | 11.88049 | 25385 ft | 428 kts | 189° |
| 2026-05-07 16:28 | 47.10261 | 11.87463 | 25793 ft | 429 kts | 189° |
| 2026-05-07 16:28 | 47.07293 | 11.86877 | 26182 ft | 431 kts | 189° |
| 2026-05-07 16:28 | 47.04310 | 11.86292 | 26600 ft | 433 kts | 189° |
| 2026-05-07 16:29 | 47.01319 | 11.85695 | 26974 ft | 434 kts | 191° |
| 2026-05-07 16:29 | 46.98382 | 11.84961 | 27378 ft | 435 kts | 193° |
| 2026-05-07 16:29 | 46.95416 | 11.84053 | 27715 ft | 437 kts | 195° |
| 2026-05-07 16:29 | 46.92454 | 11.83042 | 28066 ft | 438 kts | 196° |
| 2026-05-07 16:30 | 46.89478 | 11.81992 | 28419 ft | 440 kts | 196° |
| 2026-05-07 16:30 | 46.86484 | 11.80953 | 28746 ft | 442 kts | 195° |
| 2026-05-07 16:30 | 46.83479 | 11.79949 | 29103 ft | 444 kts | 195° |
| 2026-05-07 16:30 | 46.80446 | 11.78975 | 29449 ft | 445 kts | 195° |
| 2026-05-07 16:31 | 46.77413 | 11.78025 | 29734 ft | 447 kts | 195° |
| 2026-05-07 16:31 | 46.74364 | 11.77084 | 30091 ft | 448 kts | 195° |
| 2026-05-07 16:31 | 46.71325 | 11.76148 | 30440 ft | 446 kts | 196° |
| 2026-05-07 16:31 | 46.68294 | 11.75209 | 30811 ft | 445 kts | 196° |
| 2026-05-07 16:32 | 46.65273 | 11.74267 | 31192 ft | 444 kts | 196° |
| 2026-05-07 16:32 | 46.62276 | 11.73452 | 31566 ft | 446 kts | 191° |
| 2026-05-07 16:32 | 46.59172 | 11.73256 | 31942 ft | 450 kts | 182° |
| 2026-05-07 16:32 | 46.56036 | 11.73703 | 32251 ft | 453 kts | 178° |
| 2026-05-07 16:33 | 46.52905 | 11.74260 | 32582 ft | 453 kts | 178° |
| 2026-05-07 16:33 | 46.49772 | 11.74822 | 32907 ft | 453 kts | 178° |
| 2026-05-07 16:33 | 46.46646 | 11.75379 | 33237 ft | 452 kts | 179° |
| 2026-05-07 16:33 | 46.43519 | 11.75929 | 33562 ft | 452 kts | 179° |
| 2026-05-07 16:34 | 46.40395 | 11.76476 | 33918 ft | 452 kts | 179° |
| 2026-05-07 16:34 | 46.37272 | 11.77027 | 34217 ft | 452 kts | 179° |
| 2026-05-07 16:34 | 46.34188 | 11.77572 | 34492 ft | 451 kts | 179° |
| 2026-05-07 16:34 | 46.31081 | 11.78119 | 34798 ft | 449 kts | 179° |
| 2026-05-07 16:35 | 46.27974 | 11.78666 | 35114 ft | 448 kts | 179° |
| 2026-05-07 16:35 | 46.24878 | 11.79210 | 35394 ft | 448 kts | 179° |
| 2026-05-07 16:35 | 46.21787 | 11.79750 | 35640 ft | 447 kts | 179° |
| 2026-05-07 16:35 | 46.18706 | 11.80283 | 35848 ft | 447 kts | 179° |
| 2026-05-07 16:36 | 46.15616 | 11.80817 | 36101 ft | 446 kts | 179° |
| 2026-05-07 16:36 | 46.12541 | 11.81349 | 36346 ft | 446 kts | 179° |
| 2026-05-07 16:36 | 46.09454 | 11.81883 | 36583 ft | 446 kts | 179° |
| 2026-05-07 16:36 | 46.06368 | 11.82417 | 36849 ft | 446 kts | 179° |
| 2026-05-07 16:37 | 46.03289 | 11.82953 | 36973 ft | 446 kts | 179° |
| 2026-05-07 16:37 | 45.97123 | 11.84027 | 36991 ft | 446 kts | 179° |
| 2026-05-07 16:38 | 45.91006 | 11.85089 | 36998 ft | 445 kts | 179° |
| 2026-05-07 16:38 | 45.84865 | 11.86150 | 36993 ft | 445 kts | 179° |
| 2026-05-07 16:39 | 45.78715 | 11.87207 | 36966 ft | 444 kts | 179° |
| 2026-05-07 16:39 | 45.72589 | 11.88264 | 36967 ft | 443 kts | 179° |
| 2026-05-07 16:40 | 45.66472 | 11.89318 | 36983 ft | 442 kts | 179° |
| 2026-05-07 16:40 | 45.60364 | 11.90363 | 36984 ft | 442 kts | 179° |
| 2026-05-07 16:41 | 45.54264 | 11.91399 | 36948 ft | 441 kts | 179° |
| 2026-05-07 16:41 | 45.48205 | 11.92434 | 36971 ft | 441 kts | 179° |
| 2026-05-07 16:42 | 45.42121 | 11.93472 | 36980 ft | 440 kts | 179° |
| 2026-05-07 16:42 | 45.36041 | 11.94508 | 36990 ft | 440 kts | 179° |